sensor_id;sensor_type;location;lat;lon;timestamp;P1;durP1;ratioP1;P2;durP2;ratioP2
16977;SDS011;8605;52.548;4.918;2023-08-06T00:04:07;10.45;;;7.85;;
16977;SDS011;8605;52.548;4.918;2023-08-06T00:09:10;10.32;;;7.03;;
16977;SDS011;8605;52.548;4.918;2023-08-06T00:14:14;11.73;;;7.72;;
16977;SDS011;8605;52.548;4.918;2023-08-06T00:19:20;10.93;;;8.20;;
16977;SDS011;8605;52.548;4.918;2023-08-06T00:24:23;9.93;;;7.40;;
16977;SDS011;8605;52.548;4.918;2023-08-06T00:29:26;9.82;;;7.35;;
16977;SDS011;8605;52.548;4.918;2023-08-06T00:34:30;8.10;;;5.95;;
16977;SDS011;8605;52.548;4.918;2023-08-06T00:39:33;7.78;;;5.50;;
16977;SDS011;8605;52.548;4.918;2023-08-06T00:44:36;7.67;;;5.70;;
16977;SDS011;8605;52.548;4.918;2023-08-06T00:49:40;6.60;;;5.03;;
16977;SDS011;8605;52.548;4.918;2023-08-06T00:54:43;8.05;;;6.15;;
16977;SDS011;8605;52.548;4.918;2023-08-06T00:59:46;10.00;;;6.28;;
16977;SDS011;8605;52.548;4.918;2023-08-06T01:04:51;8.80;;;6.07;;
16977;SDS011;8605;52.548;4.918;2023-08-06T01:09:57;7.95;;;5.82;;
16977;SDS011;8605;52.548;4.918;2023-08-06T01:15:04;8.83;;;5.57;;
16977;SDS011;8605;52.548;4.918;2023-08-06T01:20:12;9.70;;;6.10;;
16977;SDS011;8605;52.548;4.918;2023-08-06T01:25:16;6.85;;;5.20;;
16977;SDS011;8605;52.548;4.918;2023-08-06T01:30:21;9.40;;;5.43;;
16977;SDS011;8605;52.548;4.918;2023-08-06T01:35:28;8.17;;;5.70;;
16977;SDS011;8605;52.548;4.918;2023-08-06T01:40:34;9.32;;;5.78;;
16977;SDS011;8605;52.548;4.918;2023-08-06T01:45:37;8.20;;;5.87;;
16977;SDS011;8605;52.548;4.918;2023-08-06T01:50:40;8.43;;;5.27;;
16977;SDS011;8605;52.548;4.918;2023-08-06T01:55:48;7.87;;;5.90;;
16977;SDS011;8605;52.548;4.918;2023-08-06T02:00:51;6.77;;;5.30;;
16977;SDS011;8605;52.548;4.918;2023-08-06T02:05:54;7.50;;;5.43;;
16977;SDS011;8605;52.548;4.918;2023-08-06T02:10:59;10.85;;;5.85;;
16977;SDS011;8605;52.548;4.918;2023-08-06T02:16:06;7.68;;;5.75;;
16977;SDS011;8605;52.548;4.918;2023-08-06T02:21:10;10.00;;;6.83;;
16977;SDS011;8605;52.548;4.918;2023-08-06T02:26:14;9.57;;;7.40;;
16977;SDS011;8605;52.548;4.918;2023-08-06T02:31:17;12.55;;;7.70;;
16977;SDS011;8605;52.548;4.918;2023-08-06T02:36:20;9.90;;;7.27;;
16977;SDS011;8605;52.548;4.918;2023-08-06T02:41:25;11.83;;;7.90;;
16977;SDS011;8605;52.548;4.918;2023-08-06T02:46:28;14.13;;;8.13;;
16977;SDS011;8605;52.548;4.918;2023-08-06T02:51:31;9.30;;;6.70;;
16977;SDS011;8605;52.548;4.918;2023-08-06T02:56:35;12.05;;;8.23;;
16977;SDS011;8605;52.548;4.918;2023-08-06T03:01:47;11.47;;;7.47;;
16977;SDS011;8605;52.548;4.918;2023-08-06T03:06:56;10.48;;;6.30;;
16977;SDS011;8605;52.548;4.918;2023-08-06T03:12:09;7.70;;;5.60;;
16977;SDS011;8605;52.548;4.918;2023-08-06T03:17:13;8.23;;;5.55;;
16977;SDS011;8605;52.548;4.918;2023-08-06T03:22:17;6.75;;;5.32;;
16977;SDS011;8605;52.548;4.918;2023-08-06T03:27:21;7.60;;;5.57;;
16977;SDS011;8605;52.548;4.918;2023-08-06T03:32:26;10.55;;;6.30;;
16977;SDS011;8605;52.548;4.918;2023-08-06T03:37:29;9.50;;;6.85;;
16977;SDS011;8605;52.548;4.918;2023-08-06T03:42:34;9.67;;;6.77;;
16977;SDS011;8605;52.548;4.918;2023-08-06T03:47:37;10.18;;;7.40;;
16977;SDS011;8605;52.548;4.918;2023-08-06T03:52:41;10.48;;;7.15;;
16977;SDS011;8605;52.548;4.918;2023-08-06T03:57:46;10.05;;;7.55;;
16977;SDS011;8605;52.548;4.918;2023-08-06T04:02:49;10.45;;;7.82;;
16977;SDS011;8605;52.548;4.918;2023-08-06T04:07:53;8.70;;;6.07;;
16977;SDS011;8605;52.548;4.918;2023-08-06T04:12:57;6.90;;;5.30;;
16977;SDS011;8605;52.548;4.918;2023-08-06T04:18:00;6.60;;;4.78;;
16977;SDS011;8605;52.548;4.918;2023-08-06T04:23:05;6.32;;;4.53;;
16977;SDS011;8605;52.548;4.918;2023-08-06T04:28:11;5.53;;;4.32;;
16977;SDS011;8605;52.548;4.918;2023-08-06T04:33:14;6.07;;;4.20;;
16977;SDS011;8605;52.548;4.918;2023-08-06T04:38:18;5.05;;;4.00;;
16977;SDS011;8605;52.548;4.918;2023-08-06T04:43:23;5.70;;;4.68;;
16977;SDS011;8605;52.548;4.918;2023-08-06T04:48:26;5.63;;;4.75;;
16977;SDS011;8605;52.548;4.918;2023-08-06T04:53:29;6.85;;;5.07;;
16977;SDS011;8605;52.548;4.918;2023-08-06T04:58:34;7.28;;;4.60;;
16977;SDS011;8605;52.548;4.918;2023-08-06T05:03:40;10.60;;;6.60;;
16977;SDS011;8605;52.548;4.918;2023-08-06T05:08:43;10.35;;;7.07;;
16977;SDS011;8605;52.548;4.918;2023-08-06T05:13:48;11.90;;;8.10;;
16977;SDS011;8605;52.548;4.918;2023-08-06T05:18:51;9.87;;;7.90;;
16977;SDS011;8605;52.548;4.918;2023-08-06T05:23:54;9.30;;;7.53;;
16977;SDS011;8605;52.548;4.918;2023-08-06T05:28:58;10.43;;;7.93;;
16977;SDS011;8605;52.548;4.918;2023-08-06T05:34:01;11.38;;;7.32;;
16977;SDS011;8605;52.548;4.918;2023-08-06T05:39:04;9.48;;;7.00;;
16977;SDS011;8605;52.548;4.918;2023-08-06T05:44:09;10.83;;;7.57;;
16977;SDS011;8605;52.548;4.918;2023-08-06T05:49:12;12.30;;;7.97;;
16977;SDS011;8605;52.548;4.918;2023-08-06T05:54:15;8.25;;;6.97;;
16977;SDS011;8605;52.548;4.918;2023-08-06T05:59:19;7.55;;;6.28;;
16977;SDS011;8605;52.548;4.918;2023-08-06T06:04:22;12.07;;;6.70;;
16977;SDS011;8605;52.548;4.918;2023-08-06T06:09:25;12.03;;;6.80;;
16977;SDS011;8605;52.548;4.918;2023-08-06T06:14:30;10.27;;;6.72;;
16977;SDS011;8605;52.548;4.918;2023-08-06T06:19:33;11.03;;;7.80;;
16977;SDS011;8605;52.548;4.918;2023-08-06T06:24:36;11.07;;;6.57;;
16977;SDS011;8605;52.548;4.918;2023-08-06T06:29:40;7.30;;;5.80;;
16977;SDS011;8605;52.548;4.918;2023-08-06T06:34:43;7.88;;;5.68;;
16977;SDS011;8605;52.548;4.918;2023-08-06T06:39:46;7.38;;;4.97;;
16977;SDS011;8605;52.548;4.918;2023-08-06T06:44:51;5.03;;;4.50;;
16977;SDS011;8605;52.548;4.918;2023-08-06T06:49:54;6.80;;;4.37;;
16977;SDS011;8605;52.548;4.918;2023-08-06T06:54:57;5.83;;;4.30;;
16977;SDS011;8605;52.548;4.918;2023-08-06T07:00:01;5.47;;;3.80;;
16977;SDS011;8605;52.548;4.918;2023-08-06T07:05:07;5.60;;;4.30;;
16977;SDS011;8605;52.548;4.918;2023-08-06T07:10:11;7.05;;;4.63;;
16977;SDS011;8605;52.548;4.918;2023-08-06T07:15:15;6.53;;;4.53;;
16977;SDS011;8605;52.548;4.918;2023-08-06T07:20:19;6.30;;;4.27;;
16977;SDS011;8605;52.548;4.918;2023-08-06T07:25:22;5.43;;;4.60;;
16977;SDS011;8605;52.548;4.918;2023-08-06T07:30:27;7.90;;;5.37;;
16977;SDS011;8605;52.548;4.918;2023-08-06T07:35:30;7.85;;;5.38;;
16977;SDS011;8605;52.548;4.918;2023-08-06T07:40:34;6.90;;;5.10;;
16977;SDS011;8605;52.548;4.918;2023-08-06T07:45:39;6.25;;;4.75;;
16977;SDS011;8605;52.548;4.918;2023-08-06T07:50:42;8.10;;;5.43;;
16977;SDS011;8605;52.548;4.918;2023-08-06T07:55:51;7.80;;;5.10;;
16977;SDS011;8605;52.548;4.918;2023-08-06T08:00:56;6.45;;;4.88;;
16977;SDS011;8605;52.548;4.918;2023-08-06T08:06:01;7.75;;;5.05;;
16977;SDS011;8605;52.548;4.918;2023-08-06T08:11:04;8.38;;;4.72;;
16977;SDS011;8605;52.548;4.918;2023-08-06T08:16:09;5.85;;;4.30;;
16977;SDS011;8605;52.548;4.918;2023-08-06T08:21:12;5.13;;;4.63;;
16977;SDS011;8605;52.548;4.918;2023-08-06T08:26:15;4.87;;;3.83;;
16977;SDS011;8605;52.548;4.918;2023-08-06T08:31:19;6.17;;;4.00;;
16977;SDS011;8605;52.548;4.918;2023-08-06T08:36:22;7.03;;;3.83;;
16977;SDS011;8605;52.548;4.918;2023-08-06T08:41:27;5.50;;;3.67;;
16977;SDS011;8605;52.548;4.918;2023-08-06T08:46:32;5.33;;;4.07;;
16977;SDS011;8605;52.548;4.918;2023-08-06T08:51:36;3.92;;;3.08;;
16977;SDS011;8605;52.548;4.918;2023-08-06T08:56:39;5.85;;;3.20;;
16977;SDS011;8605;52.548;4.918;2023-08-06T09:01:43;5.40;;;3.35;;
16977;SDS011;8605;52.548;4.918;2023-08-06T09:06:49;4.43;;;3.00;;
16977;SDS011;8605;52.548;4.918;2023-08-06T09:11:53;4.93;;;3.30;;
16977;SDS011;8605;52.548;4.918;2023-08-06T09:16:59;5.53;;;3.33;;
16977;SDS011;8605;52.548;4.918;2023-08-06T09:22:02;5.53;;;3.13;;
16977;SDS011;8605;52.548;4.918;2023-08-06T09:27:12;3.47;;;2.53;;
16977;SDS011;8605;52.548;4.918;2023-08-06T09:32:17;41.75;;;8.38;;
16977;SDS011;8605;52.548;4.918;2023-08-06T09:37:22;4.22;;;2.88;;
16977;SDS011;8605;52.548;4.918;2023-08-06T09:42:25;3.90;;;2.55;;
16977;SDS011;8605;52.548;4.918;2023-08-06T09:47:29;3.83;;;2.30;;
16977;SDS011;8605;52.548;4.918;2023-08-06T09:52:32;3.88;;;2.28;;
16977;SDS011;8605;52.548;4.918;2023-08-06T09:57:35;3.72;;;2.38;;
16977;SDS011;8605;52.548;4.918;2023-08-06T10:02:40;4.17;;;2.37;;
16977;SDS011;8605;52.548;4.918;2023-08-06T10:07:44;4.13;;;2.23;;
16977;SDS011;8605;52.548;4.918;2023-08-06T10:12:48;7.05;;;2.60;;
16977;SDS011;8605;52.548;4.918;2023-08-06T10:17:54;4.50;;;1.98;;
16977;SDS011;8605;52.548;4.918;2023-08-06T10:22:59;3.60;;;1.52;;
16977;SDS011;8605;52.548;4.918;2023-08-06T10:28:07;3.00;;;1.85;;
16977;SDS011;8605;52.548;4.918;2023-08-06T10:33:12;2.78;;;1.60;;
16977;SDS011;8605;52.548;4.918;2023-08-06T10:38:15;3.45;;;1.42;;
16977;SDS011;8605;52.548;4.918;2023-08-06T10:43:26;2.67;;;1.58;;
16977;SDS011;8605;52.548;4.918;2023-08-06T10:48:31;2.35;;;1.42;;
16977;SDS011;8605;52.548;4.918;2023-08-06T10:53:37;4.22;;;1.73;;
16977;SDS011;8605;52.548;4.918;2023-08-06T10:58:40;3.92;;;2.22;;
16977;SDS011;8605;52.548;4.918;2023-08-06T11:03:46;4.10;;;1.55;;
16977;SDS011;8605;52.548;4.918;2023-08-06T11:08:51;4.30;;;1.87;;
16977;SDS011;8605;52.548;4.918;2023-08-06T11:13:55;5.50;;;2.17;;
16977;SDS011;8605;52.548;4.918;2023-08-06T11:18:59;4.27;;;2.20;;
16977;SDS011;8605;52.548;4.918;2023-08-06T11:24:02;3.80;;;1.73;;
16977;SDS011;8605;52.548;4.918;2023-08-06T11:29:05;3.22;;;1.60;;
16977;SDS011;8605;52.548;4.918;2023-08-06T11:34:10;2.30;;;1.55;;
16977;SDS011;8605;52.548;4.918;2023-08-06T11:39:13;2.20;;;1.70;;
16977;SDS011;8605;52.548;4.918;2023-08-06T11:44:18;2.30;;;1.60;;
16977;SDS011;8605;52.548;4.918;2023-08-06T11:49:38;2.10;;;1.60;;
16977;SDS011;8605;52.548;4.918;2023-08-06T11:54:42;4.70;;;1.80;;
16977;SDS011;8605;52.548;4.918;2023-08-06T11:59:45;3.88;;;1.33;;
16977;SDS011;8605;52.548;4.918;2023-08-06T12:04:59;3.08;;;1.60;;
16977;SDS011;8605;52.548;4.918;2023-08-06T12:10:03;2.10;;;1.60;;
16977;SDS011;8605;52.548;4.918;2023-08-06T12:15:07;2.25;;;1.52;;
16977;SDS011;8605;52.548;4.918;2023-08-06T12:20:12;3.90;;;1.48;;
16977;SDS011;8605;52.548;4.918;2023-08-06T12:25:16;4.55;;;1.48;;
16977;SDS011;8605;52.548;4.918;2023-08-06T12:30:19;1.95;;;1.50;;
16977;SDS011;8605;52.548;4.918;2023-08-06T12:35:24;2.03;;;1.40;;
16977;SDS011;8605;52.548;4.918;2023-08-06T12:40:27;4.30;;;1.90;;
16977;SDS011;8605;52.548;4.918;2023-08-06T12:45:39;2.35;;;1.40;;
16977;SDS011;8605;52.548;4.918;2023-08-06T12:50:43;3.50;;;2.20;;
16977;SDS011;8605;52.548;4.918;2023-08-06T12:55:46;4.72;;;2.78;;
16977;SDS011;8605;52.548;4.918;2023-08-06T13:00:49;9.20;;;5.05;;
16977;SDS011;8605;52.548;4.918;2023-08-06T13:05:54;12.90;;;8.20;;
16977;SDS011;8605;52.548;4.918;2023-08-06T13:10:57;2.83;;;2.00;;
16977;SDS011;8605;52.548;4.918;2023-08-06T13:16:00;2.75;;;1.30;;
16977;SDS011;8605;52.548;4.918;2023-08-06T13:21:04;1.65;;;1.17;;
16977;SDS011;8605;52.548;4.918;2023-08-06T13:26:07;1.35;;;0.95;;
16977;SDS011;8605;52.548;4.918;2023-08-06T13:31:10;2.80;;;0.82;;
16977;SDS011;8605;52.548;4.918;2023-08-06T13:36:15;4.60;;;1.27;;
16977;SDS011;8605;52.548;4.918;2023-08-06T13:41:18;2.30;;;0.90;;
16977;SDS011;8605;52.548;4.918;2023-08-06T13:46:22;1.33;;;0.77;;
16977;SDS011;8605;52.548;4.918;2023-08-06T13:51:27;3.33;;;1.42;;
16977;SDS011;8605;52.548;4.918;2023-08-06T13:56:30;2.63;;;1.55;;
16977;SDS011;8605;52.548;4.918;2023-08-06T14:01:33;4.50;;;1.30;;
16977;SDS011;8605;52.548;4.918;2023-08-06T14:06:52;4.32;;;1.20;;
16977;SDS011;8605;52.548;4.918;2023-08-06T14:11:56;3.00;;;1.20;;
16977;SDS011;8605;52.548;4.918;2023-08-06T14:16:59;5.20;;;1.05;;
16977;SDS011;8605;52.548;4.918;2023-08-06T14:22:05;3.95;;;1.00;;
16977;SDS011;8605;52.548;4.918;2023-08-06T14:27:08;2.63;;;1.35;;
16977;SDS011;8605;52.548;4.918;2023-08-06T14:32:11;3.50;;;1.23;;
16977;SDS011;8605;52.548;4.918;2023-08-06T14:37:15;6.43;;;1.30;;
16977;SDS011;8605;52.548;4.918;2023-08-06T14:42:18;7.43;;;1.30;;
16977;SDS011;8605;52.548;4.918;2023-08-06T14:47:21;2.70;;;1.47;;
16977;SDS011;8605;52.548;4.918;2023-08-06T14:52:26;2.63;;;0.82;;
16977;SDS011;8605;52.548;4.918;2023-08-06T14:57:29;5.43;;;0.80;;
16977;SDS011;8605;52.548;4.918;2023-08-06T15:02:32;4.63;;;0.88;;
16977;SDS011;8605;52.548;4.918;2023-08-06T15:07:37;5.53;;;1.20;;
16977;SDS011;8605;52.548;4.918;2023-08-06T15:12:42;3.33;;;1.20;;
16977;SDS011;8605;52.548;4.918;2023-08-06T15:17:45;4.97;;;1.23;;
16977;SDS011;8605;52.548;4.918;2023-08-06T15:22:50;3.37;;;0.83;;
16977;SDS011;8605;52.548;4.918;2023-08-06T15:27:53;6.30;;;1.10;;
16977;SDS011;8605;52.548;4.918;2023-08-06T15:32:56;6.50;;;1.20;;
16977;SDS011;8605;52.548;4.918;2023-08-06T15:38:00;3.13;;;1.03;;
16977;SDS011;8605;52.548;4.918;2023-08-06T15:43:04;2.13;;;1.10;;
16977;SDS011;8605;52.548;4.918;2023-08-06T15:48:07;3.92;;;0.90;;
16977;SDS011;8605;52.548;4.918;2023-08-06T15:53:12;3.20;;;1.20;;
16977;SDS011;8605;52.548;4.918;2023-08-06T15:58:15;3.33;;;0.90;;
16977;SDS011;8605;52.548;4.918;2023-08-06T16:03:18;7.57;;;1.40;;
16977;SDS011;8605;52.548;4.918;2023-08-06T16:08:22;7.53;;;1.52;;
16977;SDS011;8605;52.548;4.918;2023-08-06T16:13:25;4.28;;;1.42;;
16977;SDS011;8605;52.548;4.918;2023-08-06T16:18:28;5.63;;;1.23;;
16977;SDS011;8605;52.548;4.918;2023-08-06T16:23:32;5.22;;;1.27;;
16977;SDS011;8605;52.548;4.918;2023-08-06T16:28:35;5.55;;;1.13;;
16977;SDS011;8605;52.548;4.918;2023-08-06T16:33:38;7.75;;;1.60;;
16977;SDS011;8605;52.548;4.918;2023-08-06T16:38:43;4.40;;;1.17;;
16977;SDS011;8605;52.548;4.918;2023-08-06T16:43:46;5.10;;;1.30;;
16977;SDS011;8605;52.548;4.918;2023-08-06T16:48:49;4.63;;;1.40;;
16977;SDS011;8605;52.548;4.918;2023-08-06T16:53:53;4.20;;;1.60;;
16977;SDS011;8605;52.548;4.918;2023-08-06T16:58:56;10.15;;;1.50;;
16977;SDS011;8605;52.548;4.918;2023-08-06T17:03:59;2.08;;;1.05;;
16977;SDS011;8605;52.548;4.918;2023-08-06T17:09:03;3.15;;;1.05;;
16977;SDS011;8605;52.548;4.918;2023-08-06T17:14:07;2.88;;;1.30;;
16977;SDS011;8605;52.548;4.918;2023-08-06T17:19:10;3.25;;;1.25;;
16977;SDS011;8605;52.548;4.918;2023-08-06T17:24:15;7.00;;;1.50;;
16977;SDS011;8605;52.548;4.918;2023-08-06T17:29:18;3.43;;;1.50;;
16977;SDS011;8605;52.548;4.918;2023-08-06T17:34:21;4.67;;;1.50;;
16977;SDS011;8605;52.548;4.918;2023-08-06T17:39:25;4.93;;;1.27;;
16977;SDS011;8605;52.548;4.918;2023-08-06T17:44:29;5.40;;;1.15;;
16977;SDS011;8605;52.548;4.918;2023-08-06T17:49:32;3.40;;;1.02;;
16977;SDS011;8605;52.548;4.918;2023-08-06T17:54:36;6.20;;;1.75;;
16977;SDS011;8605;52.548;4.918;2023-08-06T17:59:39;7.13;;;1.50;;
16977;SDS011;8605;52.548;4.918;2023-08-06T18:04:42;9.15;;;1.40;;
16977;SDS011;8605;52.548;4.918;2023-08-06T18:09:46;4.95;;;1.73;;
16977;SDS011;8605;52.548;4.918;2023-08-06T18:14:50;6.43;;;1.57;;
16977;SDS011;8605;52.548;4.918;2023-08-06T18:19:53;4.00;;;1.38;;
16977;SDS011;8605;52.548;4.918;2023-08-06T18:24:57;4.97;;;1.55;;
16977;SDS011;8605;52.548;4.918;2023-08-06T18:30:03;8.50;;;1.58;;
16977;SDS011;8605;52.548;4.918;2023-08-06T18:35:08;5.75;;;1.52;;
16977;SDS011;8605;52.548;4.918;2023-08-06T18:40:13;3.45;;;1.20;;
16977;SDS011;8605;52.548;4.918;2023-08-06T18:45:17;6.45;;;1.50;;
16977;SDS011;8605;52.548;4.918;2023-08-06T18:50:20;3.85;;;1.55;;
16977;SDS011;8605;52.548;4.918;2023-08-06T18:55:24;2.10;;;1.17;;
16977;SDS011;8605;52.548;4.918;2023-08-06T19:00:27;6.55;;;1.45;;
16977;SDS011;8605;52.548;4.918;2023-08-06T19:05:30;4.22;;;1.33;;
16977;SDS011;8605;52.548;4.918;2023-08-06T19:10:35;5.25;;;1.60;;
16977;SDS011;8605;52.548;4.918;2023-08-06T19:15:38;5.88;;;1.30;;
16977;SDS011;8605;52.548;4.918;2023-08-06T19:20:41;3.35;;;1.08;;
16977;SDS011;8605;52.548;4.918;2023-08-06T19:25:46;5.63;;;1.52;;
16977;SDS011;8605;52.548;4.918;2023-08-06T19:30:50;7.45;;;2.03;;
16977;SDS011;8605;52.548;4.918;2023-08-06T19:35:53;12.52;;;2.10;;
16977;SDS011;8605;52.548;4.918;2023-08-06T19:41:04;5.25;;;2.35;;
16977;SDS011;8605;52.548;4.918;2023-08-06T19:46:08;8.67;;;2.00;;
16977;SDS011;8605;52.548;4.918;2023-08-06T19:51:11;11.90;;;2.20;;
16977;SDS011;8605;52.548;4.918;2023-08-06T19:56:17;13.32;;;2.28;;
16977;SDS011;8605;52.548;4.918;2023-08-06T20:01:20;12.30;;;2.70;;
16977;SDS011;8605;52.548;4.918;2023-08-06T20:06:23;4.13;;;1.80;;
16977;SDS011;8605;52.548;4.918;2023-08-06T20:11:32;5.82;;;2.00;;
16977;SDS011;8605;52.548;4.918;2023-08-06T20:16:35;9.13;;;2.07;;
16977;SDS011;8605;52.548;4.918;2023-08-06T20:21:38;9.37;;;3.00;;
16977;SDS011;8605;52.548;4.918;2023-08-06T20:26:42;11.33;;;2.93;;
16977;SDS011;8605;52.548;4.918;2023-08-06T20:31:45;4.65;;;2.17;;
16977;SDS011;8605;52.548;4.918;2023-08-06T20:36:48;13.02;;;2.15;;
16977;SDS011;8605;52.548;4.918;2023-08-06T20:41:53;5.10;;;1.83;;
16977;SDS011;8605;52.548;4.918;2023-08-06T20:46:56;7.57;;;2.00;;
16977;SDS011;8605;52.548;4.918;2023-08-06T20:52:00;8.98;;;2.38;;
16977;SDS011;8605;52.548;4.918;2023-08-06T20:57:07;6.75;;;2.42;;
16977;SDS011;8605;52.548;4.918;2023-08-06T21:02:11;4.30;;;1.50;;
16977;SDS011;8605;52.548;4.918;2023-08-06T21:07:14;4.47;;;1.58;;
16977;SDS011;8605;52.548;4.918;2023-08-06T21:12:19;7.00;;;1.50;;
16977;SDS011;8605;52.548;4.918;2023-08-06T21:17:22;9.73;;;1.70;;
16977;SDS011;8605;52.548;4.918;2023-08-06T21:22:25;4.70;;;1.27;;
16977;SDS011;8605;52.548;4.918;2023-08-06T21:27:29;3.63;;;1.60;;
16977;SDS011;8605;52.548;4.918;2023-08-06T21:32:32;7.43;;;1.60;;
16977;SDS011;8605;52.548;4.918;2023-08-06T21:37:35;6.78;;;1.13;;
16977;SDS011;8605;52.548;4.918;2023-08-06T21:42:39;5.55;;;1.65;;
16977;SDS011;8605;52.548;4.918;2023-08-06T21:47:45;3.67;;;1.20;;
16977;SDS011;8605;52.548;4.918;2023-08-06T21:52:48;7.32;;;1.80;;
16977;SDS011;8605;52.548;4.918;2023-08-06T21:57:52;5.72;;;1.55;;
16977;SDS011;8605;52.548;4.918;2023-08-06T22:02:55;4.93;;;1.52;;
16977;SDS011;8605;52.548;4.918;2023-08-06T22:07:58;4.53;;;1.10;;
16977;SDS011;8605;52.548;4.918;2023-08-06T22:13:02;5.87;;;1.67;;
16977;SDS011;8605;52.548;4.918;2023-08-06T22:18:05;3.03;;;1.10;;
16977;SDS011;8605;52.548;4.918;2023-08-06T22:23:08;3.63;;;1.20;;
16977;SDS011;8605;52.548;4.918;2023-08-06T22:28:13;6.60;;;1.48;;
16977;SDS011;8605;52.548;4.918;2023-08-06T22:33:16;3.95;;;1.60;;
16977;SDS011;8605;52.548;4.918;2023-08-06T22:38:20;10.38;;;1.40;;
16977;SDS011;8605;52.548;4.918;2023-08-06T22:43:24;9.90;;;1.83;;
16977;SDS011;8605;52.548;4.918;2023-08-06T22:48:27;6.33;;;1.80;;
16977;SDS011;8605;52.548;4.918;2023-08-06T22:53:30;4.72;;;1.63;;
16977;SDS011;8605;52.548;4.918;2023-08-06T22:58:34;6.50;;;1.85;;
16977;SDS011;8605;52.548;4.918;2023-08-06T23:03:39;3.88;;;1.83;;
16977;SDS011;8605;52.548;4.918;2023-08-06T23:08:44;4.93;;;2.17;;
16977;SDS011;8605;52.548;4.918;2023-08-06T23:13:51;3.87;;;1.50;;
16977;SDS011;8605;52.548;4.918;2023-08-06T23:18:55;6.57;;;2.30;;
16977;SDS011;8605;52.548;4.918;2023-08-06T23:23:58;7.65;;;2.20;;
16977;SDS011;8605;52.548;4.918;2023-08-06T23:29:03;6.90;;;2.07;;
16977;SDS011;8605;52.548;4.918;2023-08-06T23:34:06;7.90;;;2.75;;
16977;SDS011;8605;52.548;4.918;2023-08-06T23:39:10;6.03;;;2.10;;
16977;SDS011;8605;52.548;4.918;2023-08-06T23:44:15;8.45;;;2.38;;
16977;SDS011;8605;52.548;4.918;2023-08-06T23:49:18;6.22;;;2.10;;
16977;SDS011;8605;52.548;4.918;2023-08-06T23:54:21;4.60;;;1.55;;
16977;SDS011;8605;52.548;4.918;2023-08-06T23:59:25;8.32;;;2.72;;
